Time;durP1;ratioP1;P1;durP2;ratioP2;P2;SDS_P1;SDS_P2;PMS_P1;PMS_P2;Temp;Humidity;BMP_temperature;BMP_pressure;BME280_temperature;BME280_humidity;BME280_pressure;Samples;Min_cycle;Max_cycle;Signal;HPM_P1;HPM_P2
2021/09/16 00:02:07;;;;;;;12.35;8.83;;;;;;;16.67;74.49;101040.91;1703326;83;21050;-83
2021/09/16 00:04:34;;;;;;;9.10;8.15;;;;;;;16.66;74.58;101037.34;1732610;82;21078;-83
2021/09/16 00:07:04;;;;;;;11.73;8.43;;;;;;;16.66;74.56;101038.67;1703366;84;21107;-83
2021/09/16 00:09:30;;;;;;;14.10;10.18;;;;;;;16.66;74.55;101032.03;1732031;81;21054;-82
2021/09/16 00:11:56;;;;;;;12.65;9.25;;;;;;;16.67;74.58;101031.61;1703265;84;21749;-82
2021/09/16 00:14:24;;;;;;;12.05;9.08;;;;;;;16.67;74.54;101031.61;1732368;82;20972;-82
2021/09/16 00:16:51;;;;;;;14.15;9.50;;;;;;;16.66;74.53;101031.15;1703128;84;21089;-81
2021/09/16 00:19:20;;;;;;;10.40;9.30;;;;;;;16.64;74.57;101024.49;1732401;82;21046;-82
2021/09/16 00:21:55;;;;;;;12.10;8.80;;;;;;;16.63;74.67;101021.41;1703187;83;21068;-82
2021/09/16 00:24:20;;;;;;;11.33;9.13;;;;;;;16.62;74.75;101012.09;1732239;81;21809;-82
2021/09/16 00:26:46;;;;;;;12.28;9.43;;;;;;;16.60;74.87;101009.42;1703188;84;21535;-83
2021/09/16 00:29:15;;;;;;;10.05;9.10;;;;;;;16.59;74.89;101013.39;1706564;82;20988;-82
2021/09/16 00:31:42;;;;;;;11.03;9.65;;;;;;;16.56;75.04;101008.97;1703508;83;21101;-83
2021/09/16 00:34:09;;;;;;;10.60;9.50;;;;;;;16.55;75.21;101015.59;1733065;82;20975;-83
2021/09/16 00:36:37;;;;;;;11.00;9.90;;;;;;;16.51;75.32;101012.03;1703733;83;22396;-83
2021/09/16 00:39:05;;;;;;;11.50;10.13;;;;;;;16.49;75.44;101013.80;1732857;82;21024;-84
2021/09/16 00:41:32;;;;;;;12.68;9.85;;;;;;;16.47;75.55;101010.25;1703529;84;21073;-84
2021/09/16 00:43:59;;;;;;;11.53;9.93;;;;;;;16.45;75.65;101010.23;1732719;82;21608;-83
2021/09/16 00:46:26;;;;;;;12.15;10.68;;;;;;;16.43;75.67;101012.45;1703463;84;21576;-83
2021/09/16 00:48:56;;;;;;;12.47;9.70;;;;;;;16.41;75.74;101004.46;1732438;82;22735;-84
2021/09/16 00:51:23;;;;;;;14.10;11.00;;;;;;;16.42;75.83;101007.58;1703080;84;21001;-83
2021/09/16 00:53:50;;;;;;;11.43;9.60;;;;;;;16.40;75.87;101006.66;1732741;82;21687;-83
2021/09/16 00:56:18;;;;;;;13.15;11.83;;;;;;;16.40;75.97;101007.98;1677868;84;21649;-83
2021/09/16 00:58:49;;;;;;;12.33;10.50;;;;;;;16.38;76.04;101005.77;1732799;82;21061;-84
2021/09/16 01:01:15;;;;;;;13.48;10.85;;;;;;;16.36;76.17;101003.55;1656006;84;21861;-83
2021/09/16 01:03:42;;;;;;;12.78;10.32;;;;;;;16.35;76.23;101001.78;1732454;82;21113;-83
2021/09/16 01:06:11;;;;;;;13.00;10.45;;;;;;;16.36;76.30;100998.68;1703327;83;21543;-83
2021/09/16 01:08:38;;;;;;;14.03;10.28;;;;;;;16.33;76.31;100997.78;1732488;82;21635;-83
2021/09/16 01:11:09;;;;;;;13.65;10.53;;;;;;;16.32;76.38;101002.63;1703506;84;21050;-82
2021/09/16 01:13:33;;;;;;;14.90;10.55;;;;;;;16.31;76.51;100990.25;1731168;82;21814;-82
2021/09/16 01:16:03;;;;;;;13.85;10.20;;;;;;;16.32;76.60;100982.71;1719177;83;21128;-82
2021/09/16 01:18:31;;;;;;;14.98;10.98;;;;;;;16.35;76.58;100985.84;1719421;82;21025;-83
2021/09/16 01:20:58;;;;;;;11.90;10.32;;;;;;;16.35;76.56;100984.94;1747441;82;21115;-83
2021/09/16 01:23:24;;;;;;;13.43;10.43;;;;;;;16.36;76.63;100977.42;1769042;80;21070;-84
2021/09/16 01:25:54;;;;;;;12.03;10.80;;;;;;;16.37;76.67;100981.42;1720629;83;21826;-84
2021/09/16 01:28:20;;;;;;;11.08;9.95;;;;;;;16.36;76.58;100969.45;1746691;82;21075;-84
2021/09/16 01:30:47;;;;;;;12.55;10.58;;;;;;;16.35;76.61;100973.89;1768829;80;21074;-85
2021/09/16 01:33:13;;;;;;;12.60;10.58;;;;;;;16.35;76.67;100971.23;1739078;82;21385;-83
2021/09/16 01:35:40;;;;;;;11.22;9.98;;;;;;;16.35;76.71;100965.01;1768845;79;21580;-84
2021/09/16 01:38:07;;;;;;;13.30;10.55;;;;;;;16.34;76.72;100970.77;1739131;82;21765;-84
2021/09/16 01:40:34;;;;;;;11.53;10.23;;;;;;;16.32;76.71;100968.55;1768697;81;21110;-85
2021/09/16 01:43:03;;;;;;;13.10;10.50;;;;;;;16.30;76.82;100966.33;1690305;83;21095;-84
2021/09/16 01:45:31;;;;;;;13.45;11.40;;;;;;;16.31;76.99;100965.43;1719099;82;21628;-84
2021/09/16 01:47:58;;;;;;;12.53;11.30;;;;;;;16.30;76.97;100959.69;1747520;82;21138;-85
2021/09/16 01:50:26;;;;;;;12.43;11.12;;;;;;;16.28;77.00;100957.02;1719783;82;21035;-85
2021/09/16 01:52:54;;;;;;;15.15;10.95;;;;;;;16.25;76.97;100953.01;1768730;80;21087;-84
2021/09/16 01:55:22;;;;;;;12.25;11.03;;;;;;;16.24;77.04;100946.39;1690793;83;21040;-85
2021/09/16 01:57:49;;;;;;;12.65;11.35;;;;;;;16.24;77.10;100943.73;1747542;82;21513;-84
2021/09/16 02:00:16;;;;;;;12.23;11.03;;;;;;;16.22;77.08;100942.84;1768901;79;20992;-84
2021/09/16 02:02:45;;;;;;;12.75;11.18;;;;;;;16.19;77.11;100938.83;1690575;83;21014;-84
2021/09/16 02:05:16;;;;;;;12.68;11.18;;;;;;;16.18;77.15;100935.71;1747029;82;21609;-84
2021/09/16 02:07:43;;;;;;;13.38;11.15;;;;;;;16.17;77.18;100935.28;1768432;79;21031;-84
2021/09/16 02:10:12;;;;;;;13.65;11.25;;;;;;;16.15;77.29;100935.27;1719833;83;21665;-84
2021/09/16 02:12:41;;;;;;;12.90;10.88;;;;;;;16.14;77.39;100929.49;1747595;82;22220;-84
2021/09/16 02:15:10;;;;;;;12.95;11.53;;;;;;;16.14;77.37;100930.82;1768578;79;21215;-84
2021/09/16 02:17:39;;;;;;;14.90;11.60;;;;;;;16.12;77.42;100919.31;1767832;81;21071;-84
2021/09/16 02:20:08;;;;;;;11.88;10.78;;;;;;;16.12;77.50;100916.23;1750472;81;21117;-83
2021/09/16 02:22:40;;;;;;;17.65;11.03;;;;;;;16.12;77.51;100910.02;1719552;82;21501;-85
2021/09/16 02:25:06;;;;;;;12.53;11.30;;;;;;;16.08;77.49;100909.11;1746682;81;21052;-85
2021/09/16 02:27:32;;;;;;;12.65;11.35;;;;;;;16.07;77.59;100907.80;1747938;82;22453;-84
2021/09/16 02:30:02;;;;;;;14.13;11.73;;;;;;;16.05;77.62;100905.58;1747600;81;21050;-85
2021/09/16 02:32:29;;;;;;;13.53;12.13;;;;;;;16.03;77.65;100901.58;1747786;81;21106;-83
2021/09/16 02:34:56;;;;;;;14.80;11.53;;;;;;;16.03;77.79;100896.69;1747720;81;21000;-85
2021/09/16 02:37:23;;;;;;;13.30;11.85;;;;;;;16.01;77.80;100897.13;1747777;82;21107;-85
2021/09/16 02:39:50;;;;;;;16.60;11.48;;;;;;;15.99;77.85;100901.13;1769049;81;21843;-86
2021/09/16 02:42:18;;;;;;;16.55;11.50;;;;;;;15.96;77.88;100893.13;1745117;81;21098;-86
2021/09/16 02:44:45;;;;;;;13.98;12.20;;;;;;;15.97;77.98;100896.66;1771999;80;21047;-85
2021/09/16 02:47:14;;;;;;;15.03;12.15;;;;;;;15.96;78.00;100893.58;1738571;82;21055;-86
2021/09/16 02:49:40;;;;;;;13.30;11.97;;;;;;;15.97;78.05;100892.23;1768994;81;21560;-85
2021/09/16 02:52:07;;;;;;;15.15;12.28;;;;;;;15.97;78.09;100892.69;1738959;82;21750;-84
2021/09/16 02:54:34;;;;;;;15.08;11.90;;;;;;;15.98;78.21;100890.49;1768776;79;21277;-84
2021/09/16 02:57:01;;;;;;;15.75;11.68;;;;;;;15.99;78.28;100896.23;1738927;82;21565;-84
2021/09/16 02:59:28;;;;;;;13.43;11.15;;;;;;;16.00;78.33;100894.92;1768828;80;21094;-84
2021/09/16 03:01:54;;;;;;;13.50;12.10;;;;;;;16.01;78.41;100886.50;1720487;83;21546;-84
2021/09/16 03:04:27;;;;;;;14.05;12.53;;;;;;;16.04;78.41;100885.20;1719489;82;21219;-84
2021/09/16 03:06:52;;;;;;;12.50;11.20;;;;;;;16.04;78.40;100879.44;1767549;81;21074;-84
2021/09/16 03:09:18;;;;;;;13.72;12.40;;;;;;;16.05;78.45;100877.25;1720486;83;21068;-84
2021/09/16 03:11:45;;;;;;;14.93;12.40;;;;;;;16.08;78.49;100877.24;1747583;82;21086;-84
2021/09/16 03:14:12;;;;;;;16.57;13.20;;;;;;;16.09;78.40;100872.84;1747584;82;21090;-84
2021/09/16 03:16:43;;;;;;;14.65;12.75;;;;;;;16.08;78.43;100869.28;1746980;81;21178;-84
2021/09/16 03:19:09;;;;;;;14.05;12.65;;;;;;;16.09;78.49;100868.41;1747319;82;20988;-85
2021/09/16 03:21:36;;;;;;;16.67;12.85;;;;;;;16.08;78.43;100867.07;1768917;80;21127;-84
2021/09/16 03:24:04;;;;;;;13.83;12.43;;;;;;;16.08;78.52;100859.11;1720677;83;21594;-84
2021/09/16 03:26:30;;;;;;;15.13;13.40;;;;;;;16.06;78.53;100851.58;1747841;82;21111;-85
2021/09/16 03:28:57;;;;;;;20.48;12.23;;;;;;;16.02;78.52;100847.14;1768947;81;21760;-84
2021/09/16 03:31:24;;;;;;;16.32;13.62;;;;;;;15.98;78.63;100848.02;1750624;81;20951;-85
2021/09/16 03:33:54;;;;;;;14.80;13.30;;;;;;;15.96;78.73;100846.67;1747560;82;21082;-83
2021/09/16 03:36:19;;;;;;;15.95;14.10;;;;;;;15.98;78.90;100852.00;1768230;80;21639;-83
2021/09/16 03:38:46;;;;;;;15.35;13.22;;;;;;;15.97;78.98;100848.43;1720547;83;21563;-83
2021/09/16 03:41:13;;;;;;;15.28;13.80;;;;;;;15.98;79.03;100859.96;1747490;82;22584;-83
2021/09/16 03:43:40;;;;;;;15.40;13.58;;;;;;;15.98;79.07;100861.29;1747493;81;21106;-83
2021/09/16 03:46:06;;;;;;;14.87;13.48;;;;;;;15.98;79.15;100855.98;1747608;81;21089;-84
2021/09/16 03:48:38;;;;;;;15.25;13.48;;;;;;;15.97;79.16;100852.86;1751930;81;21066;-86
2021/09/16 03:51:03;;;;;;;15.35;13.85;;;;;;;15.96;79.26;100851.98;1752798;81;21007;-84
2021/09/16 03:53:33;;;;;;;16.80;13.98;;;;;;;15.97;79.38;100846.22;1753698;81;21732;-83
2021/09/16 03:56:00;;;;;;;16.62;13.93;;;;;;;15.98;79.44;100844.03;1753668;81;21046;-84
2021/09/16 03:58:27;;;;;;;15.60;13.80;;;;;;;15.98;79.48;100841.38;1753677;81;21026;-84
2021/09/16 04:00:56;;;;;;;18.52;15.23;;;;;;;15.97;79.57;100833.83;1753636;81;21093;-84
2021/09/16 04:03:23;;;;;;;16.20;14.38;;;;;;;15.99;79.59;100832.09;1753639;81;20980;-82
2021/09/16 04:05:49;;;;;;;15.45;13.85;;;;;;;15.99;79.66;100832.09;1753396;81;21737;-83
2021/09/16 04:08:16;;;;;;;16.95;14.98;;;;;;;15.98;79.61;100829.43;1753560;80;21612;-82
2021/09/16 04:10:43;;;;;;;16.37;14.68;;;;;;;15.94;79.71;100826.75;1752490;81;21515;-84
2021/09/16 04:13:13;;;;;;;15.65;13.88;;;;;;;15.96;79.79;100820.58;1753561;81;21538;-94
2021/09/16 04:15:40;;;;;;;20.48;13.58;;;;;;;15.93;79.79;100826.32;1750844;81;21062;-95
2021/09/16 04:18:07;;;;;;;14.87;13.38;;;;;;;15.95;79.90;100824.97;1784057;80;21801;-96
2021/09/16 04:20:37;;;;;;;15.10;13.28;;;;;;;15.96;79.95;100832.08;1758799;81;21087;-96
2021/09/16 04:23:14;;;;;;;19.42;13.85;;;;;;;15.96;79.95;100836.05;1757252;81;21075;-96
2021/09/16 04:25:37;;;;;;;14.98;13.45;;;;;;;15.96;80.02;100826.77;1725075;83;21588;-85
2021/09/16 04:28:04;;;;;;;16.87;15.10;;;;;;;15.96;80.10;100822.78;1755383;81;21044;-86
2021/09/16 04:30:31;;;;;;;15.35;13.70;;;;;;;15.99;80.13;100816.58;1726434;82;22441;-86
2021/09/16 04:33:03;;;;;;;17.05;15.18;;;;;;;15.99;80.08;100815.26;1755869;80;21072;-86
2021/09/16 04:35:30;;;;;;;16.10;14.33;;;;;;;15.97;80.18;100809.94;1726265;81;21553;-84
2021/09/16 04:37:56;;;;;;;16.67;13.65;;;;;;;16.00;80.27;100811.28;1756058;81;21110;-82
2021/09/16 04:40:23;;;;;;;15.95;14.35;;;;;;;16.04;80.35;100803.77;1726185;82;21094;-83
2021/09/16 04:42:50;;;;;;;16.62;14.85;;;;;;;16.07;80.38;100801.14;1756424;81;21827;-85
2021/09/16 04:45:23;;;;;;;16.90;14.18;;;;;;;16.06;80.25;100799.34;1726698;83;21087;-93
2021/09/16 04:48:00;;;;;;;18.52;15.10;;;;;;;16.05;80.26;100805.56;1756080;80;21059;-88
2021/09/16 04:50:30;;;;;;;16.07;14.28;;;;;;;16.04;80.31;100807.75;1703953;83;21325;-91
2021/09/16 04:52:57;;;;;;;14.45;12.93;;;;;;;16.05;80.40;100807.34;1755957;81;21052;-82
2021/09/16 04:55:24;;;;;;;15.25;13.75;;;;;;;16.05;80.46;100811.32;1725980;82;22795;-81
2021/09/16 04:57:51;;;;;;;16.25;13.72;;;;;;;16.07;80.43;100805.57;1756156;80;21044;-81
2021/09/16 05:00:18;;;;;;;15.60;14.00;;;;;;;16.05;80.43;100809.99;1725896;82;21067;-82
2021/09/16 05:02:44;;;;;;;17.70;14.43;;;;;;;16.04;80.47;100810.41;1756010;80;21353;-81
2021/09/16 05:05:11;;;;;;;16.25;14.55;;;;;;;16.06;80.62;100827.23;1725917;82;21747;-82
2021/09/16 05:07:38;;;;;;;16.32;13.83;;;;;;;16.06;80.72;100829.88;1754656;80;22628;-82
2021/09/16 05:10:06;;;;;;;18.73;15.53;;;;;;;16.08;80.79;100845.38;1723697;83;21106;-81
2021/09/16 05:12:33;;;;;;;15.98;14.33;;;;;;;16.08;80.80;100842.72;1728391;81;21629;-82
2021/09/16 05:15:00;;;;;;;19.80;15.68;;;;;;;16.08;80.80;100843.17;1723719;82;21104;-82
2021/09/16 05:17:29;;;;;;;16.00;14.47;;;;;;;16.07;80.87;100836.98;1747110;82;21548;-83
2021/09/16 05:19:55;;;;;;;17.50;14.35;;;;;;;16.09;80.99;100835.67;1746775;82;21811;-82
2021/09/16 05:22:22;;;;;;;16.62;14.98;;;;;;;16.13;81.06;100840.10;1747114;82;21047;-83
2021/09/16 05:24:54;;;;;;;17.32;14.45;;;;;;;16.13;80.98;100833.02;1748144;80;21081;-82
2021/09/16 05:27:22;;;;;;;18.07;14.23;;;;;;;16.12;80.99;100824.62;1753631;80;21056;-82
2021/09/16 05:29:48;;;;;;;21.57;15.53;;;;;;;16.16;81.11;100821.95;1752975;81;21136;-83
2021/09/16 05:32:15;;;;;;;17.40;14.43;;;;;;;16.17;81.08;100817.11;1752602;81;21695;-82
2021/09/16 05:34:42;;;;;;;16.87;15.13;;;;;;;16.21;81.04;100822.86;1753323;81;21580;-82
2021/09/16 05:37:09;;;;;;;17.35;15.58;;;;;;;16.19;80.96;100817.54;1753470;81;21548;-83
2021/09/16 05:39:37;;;;;;;17.30;14.83;;;;;;;16.19;80.88;100823.30;1753307;81;21074;-83
2021/09/16 05:42:05;;;;;;;19.23;15.55;;;;;;;16.21;81.02;100822.86;1753333;81;21726;-83
2021/09/16 05:44:31;;;;;;;21.60;16.15;;;;;;;16.22;80.98;100818.02;1753384;81;21762;-83
2021/09/16 05:46:58;;;;;;;19.27;15.70;;;;;;;16.22;80.99;100811.38;1753388;81;22601;-83
2021/09/16 05:49:25;;;;;;;20.43;16.90;;;;;;;16.22;80.97;100812.25;1753398;81;21047;-82
2021/09/16 05:51:51;;;;;;;17.37;14.60;;;;;;;16.23;81.07;100804.71;1753309;81;21134;-82
2021/09/16 05:54:21;;;;;;;17.80;14.98;;;;;;;16.26;81.07;100807.84;1753436;81;21070;-83
2021/09/16 05:56:47;;;;;;;16.10;14.28;;;;;;;16.27;81.01;100804.28;1753188;81;22471;-82
2021/09/16 05:59:15;;;;;;;16.65;14.93;;;;;;;16.25;80.99;100804.72;1753601;81;21089;-82
2021/09/16 06:01:42;;;;;;;20.30;15.30;;;;;;;16.26;81.06;100811.38;1753670;81;21065;-82
2021/09/16 06:04:08;;;;;;;18.50;14.73;;;;;;;16.27;81.06;100809.59;1753523;81;21129;-83
2021/09/16 06:06:35;;;;;;;17.70;14.73;;;;;;;16.27;81.10;100802.95;1753490;81;21081;-82
2021/09/16 06:09:02;;;;;;;17.42;14.23;;;;;;;16.27;81.09;100810.92;1753274;81;21223;-82
2021/09/16 06:11:29;;;;;;;16.75;15.05;;;;;;;16.26;81.13;100800.74;1753331;81;20980;-81
2021/09/16 06:13:58;;;;;;;18.57;15.55;;;;;;;16.26;81.13;100799.42;1753296;81;21078;-83
2021/09/16 06:16:25;;;;;;;17.82;16.07;;;;;;;16.26;81.15;100794.11;1742400;79;21036;-82
2021/09/16 06:18:52;;;;;;;16.70;14.80;;;;;;;16.25;81.09;100783.47;1730444;82;21000;-82
2021/09/16 06:21:19;;;;;;;17.52;15.03;;;;;;;16.22;81.02;100780.83;1730610;82;21286;-82
2021/09/16 06:23:45;;;;;;;16.90;15.10;;;;;;;16.17;81.09;100778.14;1730819;82;21055;-83
2021/09/16 06:26:12;;;;;;;18.62;15.80;;;;;;;16.16;81.21;100767.52;1730662;82;21000;-83
2021/09/16 06:28:39;;;;;;;17.23;15.15;;;;;;;16.15;81.31;100770.62;1730777;82;21711;-82
2021/09/16 06:31:05;;;;;;;17.12;15.18;;;;;;;16.16;81.29;100770.17;1730817;82;21075;-82
2021/09/16 06:33:32;;;;;;;16.57;14.83;;;;;;;16.17;81.47;100773.28;1730739;82;22798;-83
2021/09/16 06:35:59;;;;;;;17.25;15.50;;;;;;;16.17;81.42;100770.62;1730779;82;21067;-83
2021/09/16 06:38:26;;;;;;;16.57;14.65;;;;;;;16.17;81.44;100771.95;1730901;82;20996;-83
2021/09/16 06:40:52;;;;;;;16.32;14.83;;;;;;;16.15;81.42;100771.95;1730799;82;21163;-82
2021/09/16 06:43:19;;;;;;;15.98;14.30;;;;;;;16.15;81.47;100773.72;1731085;82;21122;-83
2021/09/16 06:45:48;;;;;;;17.77;15.30;;;;;;;16.12;81.50;100769.27;1730912;82;21744;-82
2021/09/16 06:48:14;;;;;;;17.67;15.03;;;;;;;16.10;81.54;100768.38;1730783;82;21063;-82
2021/09/16 06:50:41;;;;;;;20.40;16.32;;;;;;;16.09;81.60;100771.49;1731073;82;21079;-83
2021/09/16 06:53:08;;;;;;;18.87;14.73;;;;;;;16.09;81.73;100768.84;1731022;82;21056;-83
2021/09/16 06:55:35;;;;;;;17.20;15.43;;;;;;;16.11;81.77;100769.72;1731113;82;21624;-83
2021/09/16 06:58:01;;;;;;;17.05;15.25;;;;;;;16.12;81.77;100770.60;1731070;82;22609;-83
2021/09/16 07:00:28;;;;;;;15.38;13.80;;;;;;;16.12;81.76;100762.63;1730914;82;21099;-83
2021/09/16 07:02:55;;;;;;;17.00;15.30;;;;;;;16.11;81.63;100761.75;1730701;82;21118;-82
2021/09/16 07:05:21;;;;;;;21.02;16.82;;;;;;;16.10;81.75;100761.33;1730822;82;21181;-82
2021/09/16 07:07:48;;;;;;;21.02;14.63;;;;;;;16.12;81.85;100758.66;1730822;82;21045;-83
2021/09/16 07:10:15;;;;;;;16.32;14.38;;;;;;;16.14;81.87;100762.19;1730890;82;22451;-83
2021/09/16 07:12:42;;;;;;;17.05;15.32;;;;;;;16.15;81.85;100765.30;1730930;82;21133;-83
2021/09/16 07:15:09;;;;;;;17.30;15.58;;;;;;;16.16;81.93;100760.45;1730776;82;21123;-83
2021/09/16 07:17:36;;;;;;;17.77;16.02;;;;;;;16.23;82.05;100758.23;1749293;81;21544;-82
2021/09/16 07:20:05;;;;;;;18.20;14.87;;;;;;;16.26;81.93;100762.69;1753248;81;21506;-83
2021/09/16 07:22:32;;;;;;;18.98;15.72;;;;;;;16.26;81.84;100755.59;1753557;81;22655;-82
2021/09/16 07:24:59;;;;;;;17.95;16.12;;;;;;;16.33;81.98;100747.20;1753379;81;21090;-82
2021/09/16 07:27:25;;;;;;;18.37;15.90;;;;;;;16.41;82.13;100747.22;1753469;81;21062;-83
2021/09/16 07:29:55;;;;;;;18.45;15.45;;;;;;;16.48;81.92;100741.90;1753687;81;21008;-83
2021/09/16 07:32:20;;;;;;;18.85;15.85;;;;;;;16.54;81.92;100738.36;1753210;80;21698;-82
2021/09/16 07:34:47;;;;;;;17.55;15.72;;;;;;;16.62;81.95;100745.00;1753769;81;21749;-83
2021/09/16 07:37:15;;;;;;;18.90;17.00;;;;;;;16.71;81.84;100750.32;1753238;81;21099;-83
2021/09/16 07:39:42;;;;;;;18.48;16.48;;;;;;;16.79;81.90;100748.53;1753664;81;21172;-83
2021/09/16 07:42:09;;;;;;;18.65;16.02;;;;;;;16.84;81.70;100744.14;1753553;81;21083;-83
2021/09/16 07:44:36;;;;;;;19.90;16.77;;;;;;;16.84;81.48;100743.27;1753660;81;21163;-83
2021/09/16 07:47:02;;;;;;;17.52;14.87;;;;;;;16.80;81.44;100749.41;1753383;81;21945;-83
2021/09/16 07:49:29;;;;;;;18.90;15.25;;;;;;;16.79;81.55;100748.98;1753495;81;21031;-82
2021/09/16 07:51:56;;;;;;;21.50;15.15;;;;;;;16.82;81.63;100744.59;1753515;81;21069;-83
2021/09/16 07:54:22;;;;;;;16.97;15.20;;;;;;;16.86;81.51;100758.77;1753475;81;21054;-82
2021/09/16 07:56:49;;;;;;;18.32;14.98;;;;;;;16.89;81.63;100754.76;1753498;81;21492;-83
2021/09/16 07:59:16;;;;;;;20.02;16.60;;;;;;;16.94;81.62;100758.75;1725885;81;21854;-82
2021/09/16 08:01:43;;;;;;;19.90;16.15;;;;;;;16.97;81.61;100760.97;1753462;81;21090;-83
2021/09/16 08:04:09;;;;;;;21.82;16.70;;;;;;;16.98;81.48;100762.73;1753428;81;21069;-83
2021/09/16 08:06:36;;;;;;;18.65;15.95;;;;;;;17.00;81.45;100762.73;1753489;81;21139;-83
2021/09/16 08:09:02;;;;;;;17.07;15.05;;;;;;;17.01;81.38;100765.84;1753565;81;21097;-83
2021/09/16 08:11:29;;;;;;;20.52;16.70;;;;;;;17.02;81.42;100764.94;1753632;81;21763;-83
2021/09/16 08:13:58;;;;;;;17.55;15.75;;;;;;;17.03;81.45;100761.41;1752881;81;21023;-83
2021/09/16 08:16:25;;;;;;;18.05;15.23;;;;;;;17.06;81.35;100763.63;1750895;80;21552;-83
2021/09/16 08:18:51;;;;;;;16.70;14.98;;;;;;;17.10;81.42;100765.38;1754239;80;21070;-82
2021/09/16 08:21:18;;;;;;;19.20;15.35;;;;;;;17.10;81.36;100764.05;1754073;80;21011;-82
2021/09/16 08:23:45;;;;;;;16.57;14.85;;;;;;;17.15;81.45;100760.49;1754258;80;21740;-82
2021/09/16 08:26:12;;;;;;;17.48;15.32;;;;;;;17.22;81.47;100764.47;1754202;81;21505;-83
2021/09/16 08:28:38;;;;;;;20.62;16.52;;;;;;;17.28;81.43;100763.11;1754229;81;21121;-83
2021/09/16 08:31:05;;;;;;;17.70;16.07;;;;;;;17.32;81.37;100763.99;1754112;80;21538;-83
2021/09/16 08:33:32;;;;;;;18.32;16.42;;;;;;;17.36;81.35;100763.13;1754275;80;21018;-83
2021/09/16 08:35:58;;;;;;;17.67;16.00;;;;;;;17.40;81.34;100764.88;1754111;81;21760;-82
2021/09/16 08:38:25;;;;;;;18.85;16.93;;;;;;;17.45;81.34;100761.73;1728306;81;21117;-82
2021/09/16 08:40:52;;;;;;;18.30;16.02;;;;;;;17.48;81.38;100752.88;1778006;79;21027;-83
2021/09/16 08:43:24;;;;;;;20.00;17.85;;;;;;;17.61;81.30;100762.58;1748157;81;21101;-82
2021/09/16 08:45:50;;;;;;;18.82;16.82;;;;;;;17.69;81.34;100763.42;1777911;79;20984;-83
2021/09/16 08:48:17;;;;;;;18.00;15.80;;;;;;;17.81;81.32;100756.28;1748231;80;21752;-83
2021/09/16 08:50:44;;;;;;;19.62;16.82;;;;;;;17.89;81.25;100750.52;1778019;80;21105;-82
2021/09/16 08:53:17;;;;;;;17.25;15.58;;;;;;;17.95;81.02;100752.27;1748213;80;21008;-82
2021/09/16 08:55:39;;;;;;;18.65;16.50;;;;;;;18.01;81.01;100757.55;1776770;79;21204;-83
2021/09/16 08:58:06;;;;;;;17.92;16.12;;;;;;;18.06;80.91;100754.42;1748109;82;21356;-83
2021/09/16 09:00:32;;;;;;;19.98;16.55;;;;;;;18.10;80.80;100752.17;1777618;79;21734;-83
2021/09/16 09:02:59;;;;;;;20.10;16.00;;;;;;;18.13;80.68;100745.93;1747809;82;21664;-83
2021/09/16 09:05:28;;;;;;;18.77;15.72;;;;;;;18.15;80.55;100751.70;1777842;79;21022;-83
2021/09/16 09:08:00;;;;;;;17.98;16.05;;;;;;;18.19;80.59;100737.92;1748109;81;21579;-83
2021/09/16 09:10:48;;;;;;;17.07;15.40;;;;;;;18.22;80.47;100736.55;1777855;80;21015;-83
2021/09/16 09:13:29;;;;;;;16.93;15.23;;;;;;;18.23;80.46;100737.00;1748043;81;22691;-82
2021/09/16 09:16:05;;;;;;;17.30;15.60;;;;;;;18.26;80.43;100738.30;1777825;79;21521;-82
2021/09/16 09:18:45;;;;;;;15.35;13.83;;;;;;;18.28;80.27;100736.50;1730102;82;20985;-83
2021/09/16 09:21:17;;;;;;;15.75;14.00;;;;;;;18.28;80.22;100739.16;1714404;82;21055;-82
2021/09/16 09:23:54;;;;;;;16.07;14.53;;;;;;;18.33;80.35;100734.70;1714144;82;21117;-83
2021/09/16 09:26:26;;;;;;;15.30;13.88;;;;;;;18.38;80.28;100731.56;1714224;82;21782;-83
2021/09/16 09:29:09;;;;;;;18.32;15.40;;;;;;;18.45;80.19;100737.74;1714039;83;21055;-83
2021/09/16 09:31:41;;;;;;;16.95;14.30;;;;;;;18.48;80.27;100736.82;1714394;82;21620;-82
2021/09/16 09:34:33;;;;;;;;;;;;;;;18.56;80.16;100736.30;1728516;83;21612;-83
2021/09/16 09:37:10;;;;;;;14.40;12.95;;;;;;;18.60;80.03;100738.04;1726497;83;20242;-83
2021/09/16 09:39:37;;;;;;;14.85;13.35;;;;;;;18.62;79.99;100738.48;1726012;83;21852;-83
2021/09/16 09:42:26;;;;;;;15.10;13.70;;;;;;;18.68;79.95;100738.00;1700555;83;21118;-83
2021/09/16 09:45:08;;;;;;;14.95;13.55;;;;;;;18.73;79.86;100739.73;1726483;83;21575;-83
2021/09/16 09:47:41;;;;;;;14.38;13.08;;;;;;;18.79;79.75;100737.00;1726172;82;21106;-83
2021/09/16 09:50:26;;;;;;;14.55;13.05;;;;;;;18.83;79.73;100740.56;1724513;82;26896;-83
2021/09/16 09:52:54;;;;;;;14.20;12.88;;;;;;;18.87;79.57;100732.09;1726495;82;21770;-83
2021/09/16 09:55:23;;;;;;;13.65;12.35;;;;;;;18.93;79.58;100734.23;1726520;82;21062;-83
2021/09/16 09:58:02;;;;;;;16.30;14.60;;;;;;;19.03;79.72;100733.68;1726046;83;21435;-83
2021/09/16 10:00:30;;;;;;;15.78;13.50;;;;;;;19.12;79.57;100732.25;1726501;82;21339;-83
2021/09/16 10:03:00;;;;;;;16.30;14.15;;;;;;;19.21;79.37;100741.95;1700991;82;21086;-83
2021/09/16 10:05:33;;;;;;;17.37;14.63;;;;;;;19.29;79.35;100743.20;1714031;83;21783;-83
2021/09/16 10:08:14;;;;;;;16.50;14.70;;;;;;;19.32;79.00;100743.18;1726527;83;21089;-83
2021/09/16 10:10:50;;;;;;;18.25;16.45;;;;;;;19.32;78.97;100741.39;1726411;82;21046;-83
2021/09/16 10:13:19;;;;;;;17.92;15.35;;;;;;;19.30;78.60;100740.52;1724812;83;21055;-83
2021/09/16 10:15:47;;;;;;;18.95;16.80;;;;;;;19.25;78.60;100745.02;1726481;82;21027;-83
2021/09/16 10:18:14;;;;;;;21.20;18.00;;;;;;;19.29;78.80;100740.53;1750779;79;22045;-83
2021/09/16 10:20:41;;;;;;;19.48;17.37;;;;;;;19.32;78.66;100739.18;1756247;81;21121;-83
2021/09/16 10:23:11;;;;;;;23.40;20.55;;;;;;;19.36;78.75;100744.45;1756065;80;21054;-84
2021/09/16 10:25:47;;;;;;;22.32;20.02;;;;;;;19.39;78.55;100742.22;1756189;81;21242;-83
2021/09/16 10:28:13;;;;;;;21.50;19.40;;;;;;;19.37;78.29;100752.91;1756424;80;21071;-83
2021/09/16 10:30:41;;;;;;;22.10;19.80;;;;;;;19.35;78.34;100745.80;1756442;81;22283;-83
2021/09/16 10:33:28;;;;;;;22.73;20.27;;;;;;;19.40;78.54;100742.63;1756363;80;21075;-83
2021/09/16 10:36:07;;;;;;;21.57;19.15;;;;;;;19.42;78.45;100740.83;1756172;81;21531;-83
2021/09/16 10:38:45;;;;;;;25.23;20.12;;;;;;;19.45;78.56;100739.92;1756488;80;22101;-83
2021/09/16 10:41:29;;;;;;;22.48;20.15;;;;;;;19.52;78.61;100739.83;1756391;81;21010;-83
2021/09/16 10:44:03;;;;;;;25.95;20.17;;;;;;;19.62;78.49;100745.48;1756281;80;21823;-82
2021/09/16 10:46:42;;;;;;;22.80;20.50;;;;;;;19.74;78.48;100745.80;1756296;80;21133;-83
2021/09/16 10:49:26;;;;;;;25.50;20.50;;;;;;;19.83;78.48;100747.94;1756145;80;21594;-82
2021/09/16 10:51:58;;;;;;;22.13;19.30;;;;;;;19.91;78.42;100749.58;1755498;81;21007;-83
2021/09/16 10:54:36;;;;;;;23.27;20.88;;;;;;;20.07;78.31;100750.27;1756366;81;21083;-83
2021/09/16 10:57:23;;;;;;;21.70;19.35;;;;;;;20.18;78.16;100748.78;1755773;81;22203;-83
2021/09/16 10:59:56;;;;;;;22.42;19.92;;;;;;;20.33;78.16;100744.54;1755534;80;21023;-83
2021/09/16 11:02:40;;;;;;;28.30;20.27;;;;;;;20.51;77.89;100751.38;1756271;81;21019;-82
2021/09/16 11:05:15;;;;;;;21.90;19.17;;;;;;;20.63;77.72;100749.01;1756335;81;21134;-82
2021/09/16 11:07:52;;;;;;;22.62;19.20;;;;;;;20.77;77.41;100748.30;1750897;80;21145;-83
2021/09/16 11:10:21;;;;;;;21.52;19.25;;;;;;;20.88;77.23;100748.58;1754799;81;21725;-82
2021/09/16 11:12:55;;;;;;;21.37;19.00;;;;;;;21.07;77.41;100746.45;1756187;80;21066;-83
2021/09/16 11:15:29;;;;;;;23.15;20.70;;;;;;;21.36;77.31;100743.23;1756470;81;21077;-82
2021/09/16 11:18:18;;;;;;;23.27;19.07;;;;;;;21.62;76.91;100737.35;1756082;79;21399;-83